Palopinto, Missouri
Current Conditions -  °F | °C
As of 2:15 PM on Sunday 25 Jan 2015 (Local Time) from KGLY Reporting Station
Overcast Overcast  
Wind Chill: 29°   Ceiling: 1500
Heat Index: 39°   Visibility: 8mi
Dew Point: 36°   Wind: 23mph
Humidity: 87%   Direction: 320°NW
Pressure: 29.81"   Gusts: 26mph
Location:  38.4371°N, 93.4072°W
Report Text: KGLY 252015Z AUTO 32020G23KT 8SM OVC015 04/02 A2981 RMK AO2
Loading
Personal Weather Stations






























Interactive Weather Map New forecast layout! Learn more

10-Day Weather Forecast

Advertisements
Track Severe Weather on mobile